»·PEaware :: N210AR 0O2-1L1

N210AR :: 0O2-1L1

FLIGHT INFORMATION

Flight Status: Arrived
Operator: Privately registered:
United States
More flights under this callsign
Pilot: Max S. (16657)
Aircraft: CESSNA 172 SKYHAWK
(C172)
More flights by this aircraft type
Origin: 0O2 Baker
United States
Destination: 1L1 Lincoln Co
United States
More flights between these airports :: More routes between these airports
Route: +
File this flight plan on PilotEdge
Remarks:
Altitude:
(Current/Filed)
0ft
Speed:
(Current/Filed)
0kts
Departed: 13-Jan-20 09:26 AM
Arrived: 13-Jan-20 11:01 AM
Distance/Time
Traveled:
170nm/1:34
Distance/Time
To Go:
Arrived

Flight Plot

Page will automatically refresh every two minutes.


Map Options




Map Legend


Flown Route
Filed Route
Departure Airport
Arrival Airport
Navaid (VOR, NDB)
Fix

Horizontal Profiles

Position Reports

Time Latitude Longitude Heading Altitude Ground
Speed
13-Jan-20 09:24 35.339414 -115.913744 95 6086ft 91kts
13-Jan-20 09:25 35.338721 -115.884860 48 6572ft 85kts
13-Jan-20 09:26 35.350990 -115.860040 52 7059ft 85kts
13-Jan-20 09:27 35.364863 -115.837275 37 7468ft 88kts
13-Jan-20 09:28 35.384893 -115.812371 43 7459ft 110kts
13-Jan-20 09:29 35.406206 -115.785164 43 7459ft 110kts
13-Jan-20 09:30 35.427649 -115.758161 43 7461ft 110kts
13-Jan-20 09:31 35.450829 -115.730581 45 7467ft 125kts
13-Jan-20 09:32 35.475933 -115.698689 46 7466ft 131kts
13-Jan-20 09:33 35.506702 -115.675127 27 7468ft 130kts
13-Jan-20 09:34 35.537883 -115.652422 27 7468ft 130kts
13-Jan-20 09:35 35.568457 -115.628412 39 7468ft 131kts
13-Jan-20 09:36 35.593098 -115.595135 48 7468ft 132kts
13-Jan-20 09:37 35.616817 -115.560615 48 7468ft 132kts
13-Jan-20 09:38 35.640460 -115.526097 48 7469ft 132kts
13-Jan-20 09:39 35.664123 -115.491518 48 7469ft 132kts
13-Jan-20 09:41 35.687854 -115.456816 48 7469ft 132kts
13-Jan-20 09:42 35.711495 -115.422185 48 7469ft 132kts
13-Jan-20 09:43 35.735122 -115.387552 48 7469ft 132kts
13-Jan-20 09:44 35.758719 -115.352925 48 7469ft 132kts
13-Jan-20 09:45 35.785060 -115.325091 1 7468ft 126kts
13-Jan-20 09:46 35.817009 -115.336641 344 7467ft 124kts
13-Jan-20 09:47 35.851206 -115.343041 346 7467ft 124kts
13-Jan-20 09:48 35.885491 -115.349815 346 7467ft 125kts
13-Jan-20 09:49 35.918738 -115.356594 353 7465ft 112kts
13-Jan-20 09:50 35.948699 -115.362556 352 7466ft 107kts
13-Jan-20 09:51 35.978118 -115.368487 351 7466ft 107kts
13-Jan-20 09:52 36.007526 -115.374447 350 7466ft 107kts
13-Jan-20 09:53 36.036935 -115.380416 349 7462ft 107kts
13-Jan-20 09:54 36.066427 -115.385816 355 7458ft 108kts
13-Jan-20 09:55 36.096549 -115.385316 2 7455ft 109kts
13-Jan-20 09:56 36.125931 -115.375628 11 7454ft 112kts
13-Jan-20 09:57 36.154052 -115.365674 10 7450ft 113kts
13-Jan-20 09:58 36.182373 -115.354001 16 7329ft 122kts
13-Jan-20 09:59 36.212200 -115.338584 19 6875ft 129kts
13-Jan-20 10:00 36.242368 -115.322043 20 6415ft 129kts
13-Jan-20 10:00 36.268471 -115.310047 10 6021ft 127kts
13-Jan-20 10:02 36.309141 -115.300484 6 5452ft 125kts
13-Jan-20 10:02 36.334270 -115.290258 42 5474ft 117kts
13-Jan-20 10:04 36.338411 -115.243847 90 5474ft 121kts
13-Jan-20 10:05 36.340479 -115.202582 80 5508ft 116kts
13-Jan-20 10:05 36.346664 -115.169918 74 5512ft 117kts
13-Jan-20 10:07 36.355541 -115.124054 74 5514ft 117kts
13-Jan-20 10:07 36.361661 -115.091291 74 5515ft 116kts
13-Jan-20 10:08 36.368762 -115.051950 74 5517ft 116kts
13-Jan-20 10:09 36.379984 -115.015075 46 5518ft 113kts
13-Jan-20 10:10 36.406954 -115.002341 359 5519ft 109kts
13-Jan-20 10:11 36.436909 -114.997134 11 5519ft 109kts
13-Jan-20 10:12 36.466251 -114.986815 15 5519ft 109kts
13-Jan-20 10:13 36.495241 -114.975018 16 5519ft 109kts
13-Jan-20 10:14 36.524009 -114.962842 16 5520ft 109kts
13-Jan-20 10:15 36.552790 -114.950509 16 5520ft 109kts
13-Jan-20 10:16 36.581477 -114.938168 16 5520ft 109kts
13-Jan-20 10:17 36.610759 -114.931071 2 5520ft 108kts
13-Jan-20 10:18 36.640797 -114.928375 2 5520ft 108kts
13-Jan-20 10:19 36.670458 -114.925635 2 5665ft 102kts
13-Jan-20 10:20 36.697234 -114.921096 8 6151ft 93kts
13-Jan-20 10:21 36.721987 -114.917139 5 6637ft 87kts
13-Jan-20 10:22 36.745288 -114.910221 9 7122ft 85kts
13-Jan-20 10:23 36.767924 -114.901408 12 7509ft 94kts
13-Jan-20 10:24 36.794888 -114.888816 15 7497ft 111kts
13-Jan-20 10:25 36.819558 -114.877281 15 7497ft 111kts
13-Jan-20 10:26 36.848572 -114.863910 15 7497ft 111kts
13-Jan-20 10:27 36.877560 -114.850608 15 7497ft 111kts
13-Jan-20 10:28 36.906620 -114.837286 15 7497ft 111kts
13-Jan-20 10:29 36.935651 -114.823967 15 7497ft 111kts
13-Jan-20 10:30 36.964598 -114.810684 15 7496ft 111kts
13-Jan-20 10:31 36.993646 -114.797341 15 7496ft 111kts
13-Jan-20 10:32 37.022671 -114.783999 14 7496ft 111kts
13-Jan-20 10:33 37.051642 -114.770671 14 7496ft 111kts
13-Jan-20 10:34 37.080721 -114.757283 14 7496ft 111kts
13-Jan-20 10:35 37.109101 -114.744208 14 7499ft 111kts
13-Jan-20 10:36 37.138226 -114.730779 14 7499ft 111kts
13-Jan-20 10:37 37.167395 -114.717316 14 7499ft 111kts
13-Jan-20 10:38 37.196502 -114.703872 14 7500ft 111kts
13-Jan-20 10:39 37.225664 -114.690392 14 7501ft 111kts
13-Jan-20 10:40 37.254785 -114.676918 14 7502ft 111kts
13-Jan-20 10:41 37.283946 -114.663416 14 7503ft 111kts
13-Jan-20 10:42 37.313019 -114.649944 14 7504ft 111kts
13-Jan-20 10:43 37.341786 -114.634816 19 7505ft 112kts
13-Jan-20 10:44 37.370386 -114.618868 15 7506ft 112kts
13-Jan-20 10:45 37.399420 -114.605170 14 7507ft 111kts
13-Jan-20 10:46 37.428571 -114.591629 14 7508ft 111kts
13-Jan-20 10:47 37.457758 -114.578076 14 7510ft 111kts
13-Jan-20 10:48 37.486819 -114.564569 14 7512ft 111kts
13-Jan-20 10:49 37.515914 -114.551036 14 7513ft 111kts
13-Jan-20 10:50 37.545129 -114.537436 14 7515ft 111kts
13-Jan-20 10:51 37.574251 -114.523871 15 7516ft 111kts
13-Jan-20 10:52 37.603463 -114.510246 15 7516ft 111kts
13-Jan-20 10:53 37.633509 -114.496244 15 7278ft 123kts
13-Jan-20 10:54 37.660792 -114.483433 14 6752ft 96kts
13-Jan-20 10:55 37.688346 -114.470600 16 6267ft 109kts
13-Jan-20 10:56 37.713057 -114.456545 30 5642ft 95kts
13-Jan-20 10:57 37.732880 -114.440525 28 5485ft 75kts
13-Jan-20 10:58 37.752878 -114.425837 20 5345ft 79kts
13-Jan-20 10:59 37.772451 -114.421541 1 5001ft 76kts
13-Jan-20 11:00 37.787311 -114.420832 358 4818ft 9kts
13-Jan-20 11:01 37.788550 -114.421448 20 4820ft 3kts
13-Jan-20 11:02 37.793223 -114.421171 0 4835ft 10kts
13-Jan-20 11:03 37.794070 -114.421350 140 4840ft 0kts
13-Jan-20 11:04 37.794070 -114.421350 140 4840ft 0kts

Navigation Log

Ident Type
Flight plan parsing failed, navigation log unavailable